createdAt,value
2022-09-17T00:00:00.072Z,8.4
2022-09-17T00:05:00.070Z,8.4
2022-09-17T00:10:00.339Z,8.2
2022-09-17T00:15:00.149Z,8.3
2022-09-17T00:20:00.110Z,8.3
2022-09-17T00:25:00.318Z,8.2
2022-09-17T00:30:00.166Z,8.2
2022-09-17T00:35:00.077Z,8.2
2022-09-17T00:40:00.634Z,8.2
2022-09-17T00:45:00.152Z,8.2
2022-09-17T00:50:00.080Z,8.2
2022-09-17T01:00:00.244Z,8.2
2022-09-17T01:05:00.078Z,8.2
2022-09-17T01:10:00.570Z,8.2
2022-09-17T01:15:00.140Z,8.2
2022-09-17T01:20:00.087Z,8.2
2022-09-17T01:25:00.073Z,8.2
2022-09-17T01:30:00.056Z,8.2
2022-09-17T01:35:00.113Z,8.2
2022-09-17T01:40:00.141Z,8.2
2022-09-17T01:45:00.388Z,8.1
2022-09-17T01:50:00.153Z,8.1
2022-09-17T01:55:00.071Z,8.1
2022-09-17T02:00:00.590Z,8.1
2022-09-17T02:05:00.149Z,8.1
2022-09-17T02:10:00.064Z,8.1
2022-09-17T02:15:00.073Z,8
2022-09-17T02:25:00.342Z,7.9
2022-09-17T02:30:00.154Z,7.9
2022-09-17T02:35:00.082Z,7.9
2022-09-17T02:40:00.416Z,7.8
2022-09-17T02:45:00.356Z,7.8
2022-09-17T02:50:00.167Z,7.8
2022-09-17T02:55:00.140Z,7.8
2022-09-17T03:00:00.346Z,7.7
2022-09-17T03:05:00.160Z,7.7
2022-09-17T03:10:00.053Z,7.8
2022-09-17T03:15:00.343Z,7.8
2022-09-17T03:20:00.122Z,7.8
2022-09-17T03:25:00.143Z,7.7
2022-09-17T03:30:00.317Z,7.7
2022-09-17T03:35:00.136Z,7.7
2022-09-17T03:40:00.144Z,7.6
2022-09-17T03:45:00.064Z,7.6
2022-09-17T03:50:00.076Z,7.6
2022-09-17T03:55:00.096Z,7.6
2022-09-17T04:00:00.368Z,7.5
2022-09-17T04:05:00.141Z,7.5
2022-09-17T04:10:00.077Z,7.5
2022-09-17T04:15:00.322Z,7.5
2022-09-17T04:20:00.135Z,7.4
2022-09-17T04:25:00.061Z,7.4
2022-09-17T04:30:00.387Z,7.4
2022-09-17T04:35:00.122Z,7.3
2022-09-17T04:40:00.290Z,7.3
2022-09-17T04:45:00.093Z,7.3
2022-09-17T04:50:00.359Z,7.2
2022-09-17T04:55:00.145Z,7.2
2022-09-17T05:00:00.104Z,7.1
2022-09-17T05:05:00.335Z,7.1
2022-09-17T05:10:00.362Z,7.1
2022-09-17T05:15:00.116Z,7
2022-09-17T05:20:00.076Z,7
2022-09-17T05:25:00.337Z,7.1
2022-09-17T05:30:00.129Z,7.1
2022-09-17T05:35:03.651Z,7.1
2022-09-17T05:40:00.415Z,7.1
2022-09-17T05:45:00.132Z,7.1
2022-09-17T05:50:00.103Z,7.1
2022-09-17T05:55:00.362Z,7.1
2022-09-17T06:00:00.161Z,7.2
2022-09-17T06:05:00.072Z,7.3
2022-09-17T06:10:00.358Z,7.3
2022-09-17T06:15:00.115Z,7.4
2022-09-17T06:20:00.082Z,7.4
2022-09-17T06:25:00.345Z,7.5
2022-09-17T06:30:00.158Z,7.5
2022-09-17T06:35:00.093Z,7.6
2022-09-17T06:40:00.496Z,7.5
2022-09-17T06:45:03.002Z,7.4
2022-09-17T06:50:00.070Z,7.4
2022-09-17T06:55:00.069Z,7.4
2022-09-17T07:00:00.071Z,7.4
2022-09-17T07:05:00.419Z,7.3
2022-09-17T07:10:00.174Z,7.4
2022-09-17T07:15:00.133Z,7.4
2022-09-17T07:20:00.085Z,7.5
2022-09-17T07:25:00.091Z,7.5
2022-09-17T07:30:00.103Z,7.6
2022-09-17T07:35:00.080Z,7.6
2022-09-17T07:40:00.095Z,7.7
2022-09-17T07:45:02.070Z,7.7
2022-09-17T07:50:00.395Z,7.8
2022-09-17T07:55:00.131Z,7.8
2022-09-17T08:00:00.092Z,7.6
2022-09-17T08:05:00.373Z,7.6
2022-09-17T08:10:00.150Z,7.7
2022-09-17T08:15:00.087Z,7.8
2022-09-17T08:20:00.393Z,7.8
2022-09-17T08:25:00.141Z,7.5
2022-09-17T08:30:00.165Z,7.5
2022-09-17T08:35:00.154Z,7.5
2022-09-17T08:40:00.360Z,7.5
2022-09-17T08:45:00.901Z,7.6
2022-09-17T08:50:00.206Z,7.6
2022-09-17T08:54:59.977Z,7.6
2022-09-17T09:00:00.066Z,7.7
2022-09-17T09:05:00.087Z,7.8
2022-09-17T09:10:00.089Z,7.8
2022-09-17T09:15:00.058Z,7.8
2022-09-17T09:20:00.039Z,7.8
2022-09-17T09:25:00.080Z,7.8
2022-09-17T09:30:00.072Z,7.8
2022-09-17T09:35:00.067Z,7.8
2022-09-17T09:40:00.094Z,7.9
2022-09-17T09:45:04.249Z,7.6
2022-09-17T09:50:00.075Z,7.7
2022-09-17T09:55:00.433Z,7.6
2022-09-17T10:00:00.353Z,7.8
2022-09-17T10:05:00.146Z,7.9
2022-09-17T10:10:00.109Z,7.8
2022-09-17T10:15:00.336Z,7.7
2022-09-17T10:20:00.340Z,7.7
2022-09-17T10:25:00.150Z,7.4
2022-09-17T10:30:00.101Z,7.3
2022-09-17T10:35:00.378Z,7
2022-09-17T10:40:00.243Z,7.1
2022-09-17T10:45:00.068Z,7.1
2022-09-17T10:50:00.347Z,7
2022-09-17T10:55:00.157Z,7.2
2022-09-17T11:00:00.375Z,7.1
2022-09-17T11:05:00.128Z,7.2
2022-09-17T11:10:00.084Z,7.1
2022-09-17T11:15:00.099Z,7.1
2022-09-17T11:20:00.386Z,7.1
2022-09-17T11:25:00.091Z,7.2
2022-09-17T11:30:00.075Z,7.1
2022-09-17T11:35:00.065Z,7.1
2022-09-17T11:40:00.122Z,7.1
2022-09-17T11:45:00.375Z,7.1
2022-09-17T11:50:00.167Z,7.1
2022-09-17T11:55:00.079Z,7
2022-09-17T12:00:00.337Z,7.3
2022-09-17T12:05:00.153Z,7.5
2022-09-17T12:10:00.079Z,7.6
2022-09-17T12:15:00.370Z,7.7
2022-09-17T12:20:00.128Z,7.3
2022-09-17T12:25:00.072Z,7.2
2022-09-17T12:30:00.717Z,7.3
2022-09-17T12:35:00.363Z,7.3
2022-09-17T12:40:00.204Z,7.1
2022-09-17T12:45:00.071Z,6.9
2022-09-17T12:50:00.360Z,6.8
2022-09-17T12:55:00.159Z,7
2022-09-17T13:00:02.760Z,7
2022-09-17T13:05:01.668Z,7.1
2022-09-17T13:10:00.358Z,7.2
2022-09-17T13:15:00.130Z,7.1
2022-09-17T13:20:00.063Z,7
2022-09-17T13:25:00.356Z,6.9
2022-09-17T13:30:00.166Z,7
2022-09-17T13:35:00.077Z,6.9
2022-09-17T13:40:00.119Z,7.1
2022-09-17T13:45:00.361Z,7.2
2022-09-17T13:50:00.128Z,7.3
2022-09-17T13:55:00.093Z,7.2
2022-09-17T14:00:00.342Z,7.7
2022-09-17T14:05:00.139Z,7.3
2022-09-17T14:10:00.100Z,7.2
2022-09-17T14:15:00.394Z,7
2022-09-17T14:20:00.285Z,6.9
2022-09-17T14:25:00.070Z,6.9
2022-09-17T14:30:00.068Z,7.1
2022-09-17T14:35:00.061Z,7
2022-09-17T14:40:00.134Z,6.8
2022-09-17T14:45:00.344Z,6.9
2022-09-17T14:50:00.183Z,6.8
2022-09-17T14:55:00.086Z,6.8
2022-09-17T15:00:00.084Z,6.9
2022-09-17T15:05:00.078Z,6.9
2022-09-17T15:10:00.069Z,7
2022-09-17T15:15:00.065Z,7
2022-09-17T15:20:00.060Z,6.9
2022-09-17T15:25:00.158Z,7
2022-09-17T15:30:00.046Z,7.2
2022-09-17T15:35:00.389Z,7.2
2022-09-17T15:40:00.195Z,7.3
2022-09-17T15:45:00.069Z,7.4
2022-09-17T15:50:00.069Z,7.3
2022-09-17T15:55:00.085Z,7.3
2022-09-17T16:00:00.068Z,7.2
2022-09-17T16:05:00.066Z,7.2
2022-09-17T16:10:00.374Z,7.2
2022-09-17T16:15:00.099Z,7.1
2022-09-17T16:20:03.849Z,7.1
2022-09-17T16:25:00.135Z,7.2
2022-09-17T16:30:00.078Z,7.1
2022-09-17T16:35:00.077Z,7.2
2022-09-17T16:40:00.114Z,7.2
2022-09-17T16:45:00.342Z,7.2
2022-09-17T16:50:00.246Z,7.3
2022-09-17T16:55:00.070Z,7.5
2022-09-17T17:00:00.258Z,7.5
2022-09-17T17:05:00.099Z,7.5
2022-09-17T17:10:00.246Z,7.5
2022-09-17T17:15:00.090Z,7.4
2022-09-17T17:20:00.156Z,7.3
2022-09-17T17:25:00.077Z,7.4
2022-09-17T17:30:00.068Z,7.3
2022-09-17T17:35:00.081Z,7.1
2022-09-17T17:40:00.195Z,7
2022-09-17T17:45:00.069Z,6.9
2022-09-17T17:50:00.070Z,6.8
2022-09-17T17:55:00.067Z,6.9
2022-09-17T18:00:00.343Z,6.8
2022-09-17T18:05:04.064Z,6.8
2022-09-17T18:10:00.143Z,6.8
2022-09-17T18:15:00.064Z,6.7
2022-09-17T18:20:00.069Z,6.7
2022-09-17T18:25:00.376Z,6.8
2022-09-17T18:30:00.166Z,6.8
2022-09-17T18:35:00.070Z,6.8
2022-09-17T18:40:00.446Z,6.8
2022-09-17T18:45:00.131Z,6.8
2022-09-17T18:50:00.073Z,6.8
2022-09-17T18:55:00.335Z,6.7
2022-09-17T19:00:00.356Z,6.7
2022-09-17T19:05:00.147Z,6.7
2022-09-17T19:10:00.133Z,6.7
2022-09-17T19:15:00.082Z,6.6
2022-09-17T19:20:00.349Z,6.7
2022-09-17T19:25:00.356Z,6.7
2022-09-17T19:30:00.171Z,6.9
2022-09-17T19:35:00.086Z,6.9
2022-09-17T19:40:00.381Z,7
2022-09-17T19:45:00.157Z,7
2022-09-17T19:50:00.175Z,7.1
2022-09-17T19:55:00.080Z,7
2022-09-17T20:00:00.346Z,7.1
2022-09-17T20:05:00.118Z,7.2
2022-09-17T20:10:00.072Z,7.2
2022-09-17T20:15:00.070Z,7.2
2022-09-17T20:20:00.066Z,7.3
2022-09-17T20:25:00.359Z,7.3
2022-09-17T20:30:00.383Z,7.3
2022-09-17T20:35:00.360Z,7.3
2022-09-17T20:40:00.232Z,7.4
2022-09-17T20:45:00.067Z,7.4
2022-09-17T20:50:00.380Z,7.5
2022-09-17T20:55:00.131Z,7.5
2022-09-17T21:00:00.069Z,7.5
2022-09-17T21:05:00.079Z,7.5
2022-09-17T21:10:00.335Z,7.5
2022-09-17T21:15:00.122Z,7.5
2022-09-17T21:20:00.124Z,7.5
2022-09-17T21:25:00.349Z,7.5
2022-09-17T21:30:00.397Z,7.5
2022-09-17T21:35:00.355Z,7.6
2022-09-17T21:40:00.180Z,7.6
2022-09-17T21:45:00.069Z,7.6
2022-09-17T21:50:00.068Z,7.6
2022-09-17T21:55:00.068Z,7.6
2022-09-17T22:00:00.368Z,7.6
2022-09-17T22:05:00.386Z,7.6
2022-09-17T22:10:00.150Z,7.6
2022-09-17T22:15:00.089Z,7.7
2022-09-17T22:20:00.385Z,7.7
2022-09-17T22:25:00.140Z,7.7
2022-09-17T22:30:00.076Z,7.7
2022-09-17T22:35:00.343Z,7.7
2022-09-17T22:40:00.215Z,7.7
2022-09-17T22:45:00.143Z,7.7
2022-09-17T22:50:00.320Z,7.7
2022-09-17T22:55:00.166Z,7.7
2022-09-17T23:00:00.074Z,7.7
2022-09-17T23:05:00.367Z,7.7
2022-09-17T23:10:00.144Z,7.6
2022-09-17T23:15:00.069Z,7.6
2022-09-17T23:20:00.345Z,7.7
2022-09-17T23:25:00.112Z,7.6
2022-09-17T23:30:00.087Z,7.6
2022-09-17T23:35:00.392Z,7.5
2022-09-17T23:40:00.221Z,7.4
2022-09-17T23:45:00.058Z,7.5
2022-09-17T23:50:00.351Z,7.6
2022-09-17T23:55:00.126Z,7.4
